Time;durP1;ratioP1;P1;durP2;ratioP2;P2;SDS_P1;SDS_P2;PMS_P1;PMS_P2;Temp;Humidity;BMP_temperature;BMP_pressure;BME280_temperature;BME280_humidity;BME280_pressure;Samples;Min_cycle;Max_cycle;Signal;HPM_P1;HPM_P2
2021/12/22 05:01:30;;;;;;;21.63;11.18;;;-6.60;99.90;;;;;;5471238;22;91010;-78
2021/12/22 05:03:56;;;;;;;23.02;11.30;;;-6.70;99.90;;;;;;4963049;28;90395;-78
2021/12/22 05:06:23;;;;;;;22.17;11.23;;;-6.70;99.90;;;;;;4946407;28;91544;-78
2021/12/22 05:08:48;;;;;;;22.20;11.30;;;-6.80;99.90;;;;;;4944305;28;89466;-78
2021/12/22 05:11:14;;;;;;;22.30;10.95;;;-6.80;99.90;;;;;;4952684;28;90062;-78
2021/12/22 05:13:39;;;;;;;22.27;11.63;;;-6.80;99.90;;;;;;4941038;28;89338;-77
2021/12/22 05:16:06;;;;;;;22.75;11.25;;;-6.90;99.90;;;;;;4921058;28;91447;-77
2021/12/22 05:18:50;;;;;;;25.05;12.45;;;-6.80;99.90;;;;;;4920433;28;90221;-77
2021/12/22 05:21:16;;;;;;;24.38;12.27;;;-6.80;99.90;;;;;;4938285;28;89229;-77
2021/12/22 05:23:42;;;;;;;24.55;12.45;;;-6.80;99.90;;;;;;4938115;28;90550;-77
2021/12/22 05:26:07;;;;;;;22.38;11.57;;;-6.80;99.90;;;;;;4921456;28;92406;-77
2021/12/22 05:28:33;;;;;;;19.05;10.93;;;-6.80;99.90;;;;;;4920811;28;89343;-77
2021/12/22 05:30:59;;;;;;;22.08;11.45;;;-6.80;99.90;;;;;;4938171;28;90251;-77
2021/12/22 05:33:24;;;;;;;21.67;11.07;;;-6.80;99.90;;;;;;4920712;28;92536;-79
2021/12/22 05:35:50;;;;;;;22.88;12.00;;;-6.70;99.90;;;;;;4938401;28;89031;-77
2021/12/22 05:38:17;;;;;;;24.40;12.55;;;-6.50;99.90;;;;;;4920631;28;89350;-77
2021/12/22 05:40:42;;;;;;;24.67;12.00;;;-6.60;99.90;;;;;;4921104;28;92457;-77
2021/12/22 05:43:08;;;;;;;26.67;12.32;;;-6.60;99.90;;;;;;4938257;28;90343;-77
2021/12/22 05:45:34;;;;;;;24.15;12.88;;;-6.60;99.90;;;;;;4922144;28;93960;-77
2021/12/22 05:47:59;;;;;;;25.77;13.18;;;-6.60;99.90;;;;;;4943423;28;89251;-78
2021/12/22 05:50:25;;;;;;;27.10;13.40;;;-6.70;99.90;;;;;;4925361;28;91810;-78
2021/12/22 05:52:51;;;;;;;34.22;16.83;;;-6.50;99.90;;;;;;4923346;28;93064;-79
2021/12/22 05:55:17;;;;;;;30.73;15.77;;;-6.50;99.90;;;;;;4920406;28;91411;-79
2021/12/22 05:57:42;;;;;;;34.03;16.42;;;-6.50;99.90;;;;;;4938319;28;89309;-79
2021/12/22 06:00:08;;;;;;;33.28;17.45;;;-6.50;99.90;;;;;;4938427;28;89068;-78
2021/12/22 06:02:34;;;;;;;47.78;21.90;;;-6.50;99.90;;;;;;4937782;28;90520;-78
2021/12/22 06:04:59;;;;;;;41.05;19.10;;;-6.60;99.90;;;;;;4937700;28;89896;-79
2021/12/22 06:07:25;;;;;;;37.97;17.60;;;-6.60;99.90;;;;;;4937343;28;90152;-79
2021/12/22 06:09:51;;;;;;;41.00;20.55;;;-6.60;99.90;;;;;;4938039;28;89187;-80
2021/12/22 06:12:16;;;;;;;38.53;18.77;;;-6.40;99.90;;;;;;4920143;28;92134;-79
2021/12/22 06:14:42;;;;;;;40.88;21.33;;;-6.30;99.90;;;;;;4937620;28;91196;-78
2021/12/22 06:17:07;;;;;;;36.78;19.13;;;-6.10;99.90;;;;;;4939218;28;89182;-79
2021/12/22 06:19:33;;;;;;;38.13;18.33;;;-6.00;99.90;;;;;;4921464;28;93218;-79
2021/12/22 06:21:59;;;;;;;31.67;16.23;;;-6.00;99.90;;;;;;4938932;28;89361;-79
2021/12/22 06:24:24;;;;;;;38.17;16.48;;;-6.00;99.90;;;;;;4921509;28;91361;-79
2021/12/22 06:26:50;;;;;;;29.90;15.63;;;-5.90;99.90;;;;;;4938092;28;89386;-79
2021/12/22 06:29:15;;;;;;;32.17;14.80;;;-6.10;99.90;;;;;;4937562;28;90045;-78
2021/12/22 06:31:41;;;;;;;28.27;14.35;;;-6.10;99.90;;;;;;4937262;28;91109;-79
2021/12/22 06:34:06;;;;;;;26.98;13.93;;;-6.30;99.90;;;;;;4936405;28;90791;-79
2021/12/22 06:36:32;;;;;;;34.65;15.40;;;-6.20;99.90;;;;;;4937694;28;89303;-78
2021/12/22 06:38:58;;;;;;;34.03;16.33;;;-6.10;99.90;;;;;;4937688;28;89409;-78
2021/12/22 06:41:23;;;;;;;35.58;17.42;;;-6.10;99.90;;;;;;4936191;28;90823;-78
2021/12/22 06:43:49;;;;;;;37.88;17.63;;;-6.00;99.90;;;;;;4915106;28;92901;-78
2021/12/22 06:46:15;;;;;;;35.50;16.83;;;-5.90;99.90;;;;;;4951975;28;89287;-81
2021/12/22 06:48:40;;;;;;;31.35;16.10;;;-6.00;99.90;;;;;;4944270;28;91204;-81
2021/12/22 06:51:06;;;;;;;36.15;17.13;;;-5.90;99.90;;;;;;4952129;28;90325;-79
2021/12/22 06:53:34;;;;;;;30.55;16.05;;;-5.90;99.90;;;;;;4920129;28;93198;-80
2021/12/22 06:56:00;;;;;;;30.13;15.77;;;-6.00;99.90;;;;;;4937419;28;90364;-79
2021/12/22 06:58:26;;;;;;;29.85;15.48;;;-6.10;99.90;;;;;;4919732;28;91771;-80
2021/12/22 07:00:52;;;;;;;31.20;14.80;;;-6.20;99.90;;;;;;4921684;28;93200;-75
2021/12/22 07:03:17;;;;;;;31.48;16.02;;;-6.30;99.90;;;;;;4940151;28;89790;-77
2021/12/22 07:05:43;;;;;;;32.28;15.57;;;-6.40;99.90;;;;;;4940663;28;89274;-76
2021/12/22 07:08:09;;;;;;;32.20;16.02;;;-6.50;99.90;;;;;;4940900;28;90323;-77
2021/12/22 07:10:34;;;;;;;27.08;14.13;;;-6.40;99.90;;;;;;4940146;28;90371;-78
2021/12/22 07:13:00;;;;;;;32.55;14.82;;;-6.40;99.90;;;;;;4940604;28;89948;-76
2021/12/22 07:15:25;;;;;;;25.10;13.02;;;-6.50;99.90;;;;;;4940163;28;89163;-76
2021/12/22 07:17:52;;;;;;;28.17;13.65;;;-6.50;99.90;;;;;;4940247;28;89454;-75
2021/12/22 07:20:18;;;;;;;25.17;13.90;;;-6.60;99.90;;;;;;4928437;28;90933;-77
2021/12/22 07:22:44;;;;;;;28.45;13.73;;;-6.60;99.90;;;;;;4939932;28;90748;-76
2021/12/22 07:25:12;;;;;;;27.65;14.73;;;-6.40;99.90;;;;;;4939920;28;89313;-76
2021/12/22 07:27:38;;;;;;;29.33;14.82;;;-6.50;99.90;;;;;;4940095;28;89336;-80
2021/12/22 07:30:05;;;;;;;36.67;16.48;;;-6.60;99.90;;;;;;4940015;28;89297;-76
2021/12/22 07:32:30;;;;;;;35.25;16.90;;;-6.50;99.90;;;;;;4939392;28;89318;-77
2021/12/22 07:35:07;;;;;;;37.92;17.40;;;-6.50;99.90;;;;;;4940643;28;89193;-76
2021/12/22 07:37:41;;;;;;;32.05;17.42;;;-6.50;99.90;;;;;;4940952;28;90054;-76
2021/12/22 07:40:13;;;;;;;35.22;18.15;;;-6.40;99.90;;;;;;4940249;28;89940;-76
2021/12/22 07:42:38;;;;;;;37.72;17.70;;;-6.30;99.90;;;;;;4939520;28;89898;-76
2021/12/22 07:45:06;;;;;;;42.38;20.95;;;-6.20;99.90;;;;;;4938703;28;90646;-76
2021/12/22 07:47:31;;;;;;;43.67;21.80;;;-6.10;99.90;;;;;;4922012;28;92601;-76
2021/12/22 07:49:57;;;;;;;43.13;21.48;;;-6.10;99.90;;;;;;4939561;28;90191;-76
2021/12/22 07:52:27;;;;;;;40.00;20.58;;;-6.10;99.90;;;;;;4939980;28;89888;-76
2021/12/22 07:54:54;;;;;;;42.17;19.60;;;-6.10;99.90;;;;;;4939994;28;89224;-76
2021/12/22 07:57:20;;;;;;;42.67;19.15;;;-6.10;99.90;;;;;;4922490;28;90819;-76
2021/12/22 07:59:45;;;;;;;34.95;18.30;;;-5.90;99.90;;;;;;4921488;28;92706;-76
2021/12/22 08:02:12;;;;;;;41.58;20.58;;;-5.80;99.90;;;;;;4939580;28;89142;-76
2021/12/22 08:04:38;;;;;;;37.60;19.48;;;-5.60;99.90;;;;;;4939427;28;89768;-76
2021/12/22 08:07:04;;;;;;;37.45;18.95;;;-5.60;99.90;;;;;;4939888;28;89976;-76
2021/12/22 08:09:30;;;;;;;37.55;18.75;;;-5.60;99.90;;;;;;4933004;28;92826;-76
2021/12/22 08:12:04;;;;;;;41.75;18.55;;;-5.40;99.90;;;;;;4938787;28;90644;-77
2021/12/22 08:14:36;;;;;;;37.20;18.17;;;-5.20;99.90;;;;;;4939660;28;89355;-76
2021/12/22 08:17:03;;;;;;;36.80;17.33;;;-5.20;99.90;;;;;;4940830;28;89145;-76
2021/12/22 08:19:28;;;;;;;38.50;18.52;;;-5.10;99.90;;;;;;4939387;28;89299;-76
2021/12/22 08:21:55;;;;;;;40.67;18.23;;;-5.20;99.90;;;;;;4938968;28;89262;-76
2021/12/22 08:24:21;;;;;;;38.08;18.73;;;-5.10;99.90;;;;;;4939601;28;89263;-76
2021/12/22 08:26:47;;;;;;;40.42;19.15;;;-5.00;99.90;;;;;;4939505;28;88799;-76
2021/12/22 08:29:13;;;;;;;39.42;18.77;;;-5.00;99.90;;;;;;4939571;28;90484;-76
2021/12/22 08:31:38;;;;;;;44.60;18.40;;;-4.90;99.90;;;;;;4939651;28;90237;-76
2021/12/22 08:34:05;;;;;;;38.20;17.05;;;-4.80;99.90;;;;;;4920409;28;90055;-76
2021/12/22 08:39:16;;;;;;;37.60;18.33;;;-4.90;99.90;;;;;;4939406;28;89572;-78
2021/12/22 08:41:47;;;;;;;38.35;18.35;;;-4.80;99.90;;;;;;4938377;28;90931;-79
2021/12/22 08:44:14;;;;;;;35.72;16.88;;;-4.70;99.90;;;;;;4920855;28;89462;-78
2021/12/22 08:46:43;;;;;;;35.35;17.17;;;-4.70;99.90;;;;;;4938653;28;89341;-79
2021/12/22 08:49:09;;;;;;;37.25;17.30;;;-4.70;99.90;;;;;;4938610;28;90054;-78
2021/12/22 08:51:36;;;;;;;33.75;16.85;;;-4.70;99.90;;;;;;4939235;28;90946;-78
2021/12/22 08:54:02;;;;;;;37.38;17.80;;;-4.70;99.90;;;;;;4940254;28;89280;-79
2021/12/22 08:56:29;;;;;;;36.85;17.63;;;-4.70;99.90;;;;;;4941161;28;89766;-80
2021/12/22 08:58:55;;;;;;;38.22;18.45;;;-4.60;99.90;;;;;;4941372;28;91581;-79
2021/12/22 09:01:21;;;;;;;39.20;19.85;;;-4.50;99.90;;;;;;4921959;28;92368;-78
2021/12/22 09:03:47;;;;;;;38.65;19.00;;;-4.40;99.90;;;;;;4938219;28;89449;-78
2021/12/22 09:06:14;;;;;;;37.67;19.67;;;-4.40;99.90;;;;;;4938979;28;90994;-78
2021/12/22 09:08:40;;;;;;;35.15;19.08;;;-4.30;99.90;;;;;;4921780;28;91385;-78
2021/12/22 09:11:08;;;;;;;37.60;17.95;;;-4.30;99.90;;;;;;4939021;28;89376;-77
2021/12/22 09:13:36;;;;;;;37.00;18.83;;;-4.20;99.90;;;;;;4941219;28;89396;-78
2021/12/22 09:16:03;;;;;;;33.90;17.50;;;-4.20;99.90;;;;;;4942030;28;88910;-77
2021/12/22 09:18:28;;;;;;;41.15;19.05;;;-4.20;99.90;;;;;;4939620;28;89236;-78
2021/12/22 09:20:54;;;;;;;38.25;21.23;;;-4.20;99.90;;;;;;4941160;28;89234;-78
2021/12/22 09:23:19;;;;;;;37.83;19.67;;;-4.20;99.90;;;;;;4923029;28;90193;-79
2021/12/22 09:25:45;;;;;;;46.92;21.58;;;-4.10;99.90;;;;;;4923799;28;91597;-78
2021/12/22 09:28:18;;;;;;;40.58;20.65;;;-4.00;99.90;;;;;;4942084;28;89326;-79
2021/12/22 09:30:45;;;;;;;37.17;19.77;;;-3.90;99.90;;;;;;4921951;28;91599;-79
2021/12/22 09:33:14;;;;;;;39.90;18.27;;;-3.90;99.90;;;;;;4939549;28;90130;-80
2021/12/22 09:35:51;;;;;;;40.65;21.67;;;-3.80;99.90;;;;;;4938733;28;89930;-77
2021/12/22 09:38:16;;;;;;;37.65;19.48;;;-3.80;99.90;;;;;;4920326;28;90548;-78
2021/12/22 09:40:42;;;;;;;38.53;19.50;;;-3.70;99.90;;;;;;4938480;28;88906;-76
2021/12/22 09:43:08;;;;;;;40.95;20.85;;;-3.60;99.90;;;;;;4938675;28;89216;-80
2021/12/22 09:45:38;;;;;;;41.40;20.67;;;-3.50;99.90;;;;;;4920435;28;91503;-77
2021/12/22 09:50:46;;;;;;;36.38;20.23;;;-3.30;99.90;;;;;;4937994;28;89532;-77
2021/12/22 09:53:14;;;;;;;39.75;20.55;;;-3.30;99.90;;;;;;4920608;28;89375;-77
2021/12/22 09:55:40;;;;;;;37.78;19.90;;;-3.20;99.90;;;;;;4942048;28;89221;-78
2021/12/22 09:58:06;;;;;;;41.63;21.13;;;-3.10;99.90;;;;;;4944724;28;89127;-78
2021/12/22 10:00:35;;;;;;;41.53;20.33;;;-3.10;99.90;;;;;;4947098;28;89300;-78
2021/12/22 10:03:01;;;;;;;37.08;20.48;;;-3.10;99.90;;;;;;4946143;28;89243;-79
2021/12/22 10:05:26;;;;;;;39.53;20.38;;;-3.00;99.90;;;;;;4950608;28;89919;-78
2021/12/22 10:08:09;;;;;;;42.00;21.58;;;-3.00;99.90;;;;;;4924884;28;89343;-77
2021/12/22 10:10:40;;;;;;;43.42;22.35;;;-2.90;99.90;;;;;;4940131;28;90084;-76
2021/12/22 10:13:08;;;;;;;44.53;23.50;;;-2.80;99.90;;;;;;4943246;28;90144;-77
2021/12/22 10:15:35;;;;;;;40.72;21.95;;;-2.70;99.90;;;;;;4954446;28;91402;-79
2021/12/22 10:18:11;;;;;;;40.97;22.15;;;-2.60;99.90;;;;;;4948659;28;89661;-77
2021/12/22 10:20:38;;;;;;;38.63;20.67;;;-2.50;99.90;;;;;;4937681;28;90525;-78
2021/12/22 10:23:24;;;;;;;39.33;21.42;;;-2.50;99.90;;;;;;4949073;28;89340;-78
2021/12/22 10:25:58;;;;;;;39.88;22.40;;;-2.40;99.90;;;;;;4957491;28;92861;-78
2021/12/22 10:28:26;;;;;;;43.28;22.58;;;-2.30;99.90;;;;;;4957649;28;90100;-78
2021/12/22 10:31:01;;;;;;;39.53;21.38;;;-2.20;99.90;;;;;;4957563;28;91425;-78
2021/12/22 10:33:31;;;;;;;38.13;21.20;;;-2.20;99.90;;;;;;4957056;28;89201;-78
2021/12/22 10:35:59;;;;;;;45.42;22.20;;;-2.10;99.90;;;;;;4958850;28;89861;-78
2021/12/22 10:38:28;;;;;;;42.40;22.58;;;-2.00;99.90;;;;;;4959205;28;90989;-78
2021/12/22 10:41:02;;;;;;;40.83;22.15;;;-2.00;99.90;;;;;;4959787;28;91142;-79
2021/12/22 10:43:31;;;;;;;42.13;21.33;;;-1.90;99.90;;;;;;4942344;28;90931;-78
2021/12/22 10:46:00;;;;;;;40.55;21.63;;;-1.80;99.90;;;;;;4941995;28;93004;-78
2021/12/22 10:51:19;;;;;;;39.58;21.98;;;-1.70;99.90;;;;;;4949769;28;89789;-78
2021/12/22 10:53:49;;;;;;;43.55;21.92;;;-1.60;99.90;;;;;;4940600;28;89234;-79
2021/12/22 10:56:27;;;;;;;43.42;22.48;;;-1.60;99.90;;;;;;4946267;28;89055;-79
2021/12/22 10:59:06;;;;;;;41.25;23.02;;;-1.50;99.90;;;;;;4945476;28;89347;-79
2021/12/22 11:01:36;;;;;;;47.22;25.10;;;-1.40;99.90;;;;;;4944418;28;89368;-79
2021/12/22 11:04:05;;;;;;;43.65;23.70;;;-1.30;99.90;;;;;;4942338;28;90511;-78
2021/12/22 11:06:34;;;;;;;41.13;23.05;;;-1.20;99.90;;;;;;4941315;28;89124;-79
2021/12/22 11:09:15;;;;;;;38.80;21.85;;;-1.10;99.90;;;;;;4941377;28;89963;-83
2021/12/22 11:11:55;;;;;;;43.75;23.08;;;-1.10;99.90;;;;;;4949092;28;90126;-80
2021/12/22 11:14:23;;;;;;;38.00;22.45;;;-1.00;99.90;;;;;;4931229;28;90227;-80
2021/12/22 11:17:17;;;;;;;39.90;20.85;;;-0.90;99.90;;;;;;4926345;28;89440;-80
2021/12/22 11:19:52;;;;;;;37.72;21.00;;;-0.80;99.90;;;;;;4915438;28;90658;-79
2021/12/22 11:22:24;;;;;;;35.78;20.45;;;-0.70;99.90;;;;;;4905586;28;91529;-79
2021/12/22 11:24:52;;;;;;;35.45;20.05;;;-0.60;99.90;;;;;;4921293;28;89644;-79
2021/12/22 11:27:26;;;;;;;36.38;19.98;;;-0.50;99.90;;;;;;4920949;28;89646;-76
2021/12/22 11:29:54;;;;;;;35.55;21.20;;;-0.40;99.90;;;;;;4922105;28;91024;-79
2021/12/22 11:32:26;;;;;;;38.05;20.73;;;-0.30;99.90;;;;;;4902841;28;94137;-79
2021/12/22 11:35:02;;;;;;;37.30;20.45;;;-0.20;99.90;;;;;;4937668;28;89453;-81
2021/12/22 11:37:28;;;;;;;36.80;20.15;;;-0.10;99.90;;;;;;4940914;28;89256;-80
2021/12/22 11:39:55;;;;;;;34.50;19.80;;;-0.10;99.90;;;;;;4925332;28;91617;-80
2021/12/22 11:42:25;;;;;;;32.00;18.42;;;0.00;99.90;;;;;;4925510;28;91810;-81
2021/12/22 11:44:58;;;;;;;35.15;20.08;;;0.10;99.90;;;;;;4925939;28;89357;-82
2021/12/22 11:47:24;;;;;;;29.75;18.10;;;0.10;99.90;;;;;;4945165;28;90298;-80
2021/12/22 11:49:59;;;;;;;36.80;20.60;;;0.10;99.90;;;;;;4943920;28;90270;-80
2021/12/22 11:52:42;;;;;;;34.97;19.23;;;0.20;99.90;;;;;;4941427;28;92506;-81
2021/12/22 11:55:15;;;;;;;34.95;20.60;;;0.20;99.90;;;;;;4925628;28;90194;-83
2021/12/22 11:57:42;;;;;;;34.92;20.38;;;0.30;99.90;;;;;;4925492;28;91448;-80
2021/12/22 12:00:23;;;;;;;34.10;19.90;;;0.40;99.90;;;;;;4943692;28;89354;-80
2021/12/22 12:02:49;;;;;;;35.67;19.92;;;0.40;99.90;;;;;;4942749;28;90245;-79
2021/12/22 12:05:24;;;;;;;32.88;18.23;;;0.50;99.90;;;;;;4923305;28;89270;-78
2021/12/22 12:07:56;;;;;;;34.13;20.33;;;0.60;99.90;;;;;;4924806;28;92268;-79
2021/12/22 12:10:45;;;;;;;34.15;19.08;;;0.60;99.90;;;;;;4943477;28;89360;-80
2021/12/22 12:13:25;;;;;;;29.48;18.17;;;0.70;99.90;;;;;;4944210;28;89703;-80
2021/12/22 12:22:16;;;;;;;28.80;17.70;;;0.80;99.90;;;;;;4944637;28;90326;-80
2021/12/22 12:24:48;;;;;;;29.10;17.08;;;0.80;99.90;;;;;;4909474;28;93442;-81
2021/12/22 12:27:32;;;;;;;26.98;16.92;;;0.80;99.90;;;;;;4925867;28;89274;-82
2021/12/22 12:30:07;;;;;;;31.27;17.13;;;0.90;99.90;;;;;;4922164;28;90412;-80
2021/12/22 12:32:38;;;;;;;27.63;15.70;;;0.90;99.90;;;;;;4922969;28;89341;-80
2021/12/22 12:35:23;;;;;;;28.02;16.00;;;0.90;99.90;;;;;;4922298;28;92593;-80
2021/12/22 12:38:22;;;;;;;24.73;15.95;;;1.00;99.90;;;;;;4923178;28;89290;-81
2021/12/22 12:41:05;;;;;;;26.35;15.95;;;1.10;99.90;;;;;;4925255;28;92157;-81
2021/12/22 12:43:51;;;;;;;27.35;16.58;;;1.10;99.90;;;;;;4943101;28;89598;-78
2021/12/22 12:46:35;;;;;;;28.25;16.40;;;1.10;99.90;;;;;;4925769;28;91925;-81
2021/12/22 12:49:07;;;;;;;24.88;16.08;;;1.10;99.90;;;;;;4941682;28;90290;-82
2021/12/22 12:51:57;;;;;;;25.55;15.13;;;1.10;99.90;;;;;;4941583;28;89799;-79
2021/12/22 12:54:25;;;;;;;24.13;15.18;;;1.10;99.90;;;;;;4905353;28;92877;-80
2021/12/22 12:56:55;;;;;;;25.23;15.50;;;1.20;99.90;;;;;;4904121;28;91781;-79
2021/12/22 12:59:26;;;;;;;24.58;14.82;;;1.20;99.90;;;;;;4904935;28;89388;-80
2021/12/22 13:01:52;;;;;;;25.13;15.02;;;1.20;99.90;;;;;;4904657;28;91657;-79
2021/12/22 13:04:27;;;;;;;23.13;14.50;;;1.30;99.90;;;;;;4922929;28;89956;-79
2021/12/22 13:07:15;;;;;;;25.20;14.55;;;1.30;99.90;;;;;;4916968;28;91385;-80
2021/12/22 13:09:49;;;;;;;22.60;14.13;;;1.30;99.90;;;;;;4941870;28;89405;-80
2021/12/22 13:17:40;;;;;;;30.20;16.98;;;1.50;99.90;;;;;;4942707;28;89346;-80
2021/12/22 13:20:08;;;;;;;24.27;15.35;;;1.60;99.90;;;;;;4943512;28;89728;-80
2021/12/22 13:22:39;;;;;;;23.67;14.40;;;1.60;99.90;;;;;;4941458;28;91894;-77
2021/12/22 13:25:14;;;;;;;23.65;14.43;;;1.70;99.90;;;;;;4920636;28;92785;-77
2021/12/22 13:27:42;;;;;;;20.63;12.88;;;1.80;99.90;;;;;;4936247;28;90194;-78
2021/12/22 13:30:14;;;;;;;22.83;14.48;;;1.80;99.90;;;;;;4938096;28;89721;-78
2021/12/22 13:32:58;;;;;;;24.38;14.65;;;1.90;99.90;;;;;;4918620;28;90268;-78
2021/12/22 13:35:49;;;;;;;35.50;21.35;;;1.90;99.90;;;;;;4918209;28;89922;-76
2021/12/22 13:38:20;;;;;;;34.83;22.02;;;1.90;99.90;;;;;;4918843;28;92459;-76
2021/12/22 13:40:58;;;;;;;30.30;17.05;;;2.00;99.90;;;;;;4934040;28;90179;-75
2021/12/22 13:43:37;;;;;;;24.92;15.00;;;2.00;99.90;;;;;;4936457;28;93096;-75
2021/12/22 13:46:11;;;;;;;22.52;13.93;;;2.00;99.90;;;;;;4937274;28;90245;-77
2021/12/22 13:48:50;;;;;;;24.05;13.80;;;1.90;99.90;;;;;;4933641;28;89321;-77
2021/12/22 13:51:37;;;;;;;25.25;14.20;;;1.90;99.90;;;;;;4935769;28;89494;-78
2021/12/22 13:54:09;;;;;;;23.67;14.23;;;1.90;99.90;;;;;;4938526;28;90187;-79
2021/12/22 13:56:35;;;;;;;20.70;14.05;;;1.90;99.90;;;;;;4938616;28;90451;-79
2021/12/22 13:59:06;;;;;;;24.60;14.68;;;1.80;99.90;;;;;;4922947;28;92453;-78
2021/12/22 14:01:32;;;;;;;24.77;14.50;;;1.70;99.90;;;;;;4921624;28;89349;-78
